sensor_id;sensor_type;location;lat;lon;timestamp;pressure;altitude;pressure_sealevel;temperature;humidity
57250;BME280;43102;52.014;-0.680;2024-02-21T00:00:00;100996;;;10.38;80.46
57250;BME280;43102;52.014;-0.680;2024-02-21T00:01:00;100996;;;10.38;80.46
57250;BME280;43102;52.014;-0.680;2024-02-21T00:02:00;100996;;;10.38;80.46
57250;BME280;43102;52.014;-0.680;2024-02-21T00:03:00;100996;;;10.38;80.46
57250;BME280;43102;52.014;-0.680;2024-02-21T00:04:00;100995;;;10.37;80.52
57250;BME280;43102;52.014;-0.680;2024-02-21T00:05:00;100995;;;10.37;80.52
57250;BME280;43102;52.014;-0.680;2024-02-21T00:06:00;100995;;;10.37;80.52
57250;BME280;43102;52.014;-0.680;2024-02-21T00:07:00;100995;;;10.37;80.52
57250;BME280;43102;52.014;-0.680;2024-02-21T00:08:00;100995;;;10.37;80.52
57250;BME280;43102;52.014;-0.680;2024-02-21T00:09:00;100976;;;10.28;80.95
57250;BME280;43102;52.014;-0.680;2024-02-21T00:10:00;100976;;;10.28;80.95
57250;BME280;43102;52.014;-0.680;2024-02-21T00:11:00;100976;;;10.28;80.95
57250;BME280;43102;52.014;-0.680;2024-02-21T00:12:00;100976;;;10.28;80.95
57250;BME280;43102;52.014;-0.680;2024-02-21T00:13:00;100976;;;10.28;80.95
57250;BME280;43102;52.014;-0.680;2024-02-21T00:14:00;100958;;;10.32;80.82
57250;BME280;43102;52.014;-0.680;2024-02-21T00:15:00;100958;;;10.32;80.82
57250;BME280;43102;52.014;-0.680;2024-02-21T00:16:00;100958;;;10.32;80.82
57250;BME280;43102;52.014;-0.680;2024-02-21T00:17:00;100958;;;10.32;80.82
57250;BME280;43102;52.014;-0.680;2024-02-21T00:18:00;100958;;;10.32;80.82
57250;BME280;43102;52.014;-0.680;2024-02-21T00:19:00;100943;;;10.23;81.20
57250;BME280;43102;52.014;-0.680;2024-02-21T00:20:00;100943;;;10.23;81.20
57250;BME280;43102;52.014;-0.680;2024-02-21T00:21:00;100943;;;10.23;81.20
57250;BME280;43102;52.014;-0.680;2024-02-21T00:22:00;100943;;;10.23;81.20
57250;BME280;43102;52.014;-0.680;2024-02-21T00:23:00;100943;;;10.23;81.20
57250;BME280;43102;52.014;-0.680;2024-02-21T00:24:00;100941;;;10.17;81.45
57250;BME280;43102;52.014;-0.680;2024-02-21T00:25:00;100941;;;10.17;81.45
57250;BME280;43102;52.014;-0.680;2024-02-21T00:26:00;100941;;;10.17;81.45
57250;BME280;43102;52.014;-0.680;2024-02-21T00:27:00;100941;;;10.17;81.45
57250;BME280;43102;52.014;-0.680;2024-02-21T00:28:00;100941;;;10.17;81.45
57250;BME280;43102;52.014;-0.680;2024-02-21T00:29:00;100936;;;10.18;81.73
57250;BME280;43102;52.014;-0.680;2024-02-21T00:30:00;100936;;;10.18;81.73
57250;BME280;43102;52.014;-0.680;2024-02-21T00:31:00;100936;;;10.18;81.73
57250;BME280;43102;52.014;-0.680;2024-02-21T00:32:00;100936;;;10.18;81.73
57250;BME280;43102;52.014;-0.680;2024-02-21T00:33:00;100936;;;10.18;81.73
57250;BME280;43102;52.014;-0.680;2024-02-21T00:34:00;100921;;;10.20;81.69
57250;BME280;43102;52.014;-0.680;2024-02-21T00:35:00;100921;;;10.20;81.69
57250;BME280;43102;52.014;-0.680;2024-02-21T00:36:00;100921;;;10.20;81.69
57250;BME280;43102;52.014;-0.680;2024-02-21T00:37:00;100921;;;10.20;81.69
57250;BME280;43102;52.014;-0.680;2024-02-21T00:38:00;100921;;;10.20;81.69
57250;BME280;43102;52.014;-0.680;2024-02-21T00:39:00;100908;;;10.18;82.01
57250;BME280;43102;52.014;-0.680;2024-02-21T00:40:00;100908;;;10.18;82.01
57250;BME280;43102;52.014;-0.680;2024-02-21T00:41:00;100908;;;10.18;82.01
57250;BME280;43102;52.014;-0.680;2024-02-21T00:42:00;100908;;;10.18;82.01
57250;BME280;43102;52.014;-0.680;2024-02-21T00:43:00;100908;;;10.18;82.01
57250;BME280;43102;52.014;-0.680;2024-02-21T00:44:00;100904;;;10.16;82.18
57250;BME280;43102;52.014;-0.680;2024-02-21T00:45:00;100904;;;10.16;82.18
57250;BME280;43102;52.014;-0.680;2024-02-21T00:46:00;100904;;;10.16;82.18
57250;BME280;43102;52.014;-0.680;2024-02-21T00:47:00;100904;;;10.16;82.18
57250;BME280;43102;52.014;-0.680;2024-02-21T00:48:00;100904;;;10.16;82.18
57250;BME280;43102;52.014;-0.680;2024-02-21T00:49:00;100898;;;10.16;82.24
57250;BME280;43102;52.014;-0.680;2024-02-21T00:50:00;100898;;;10.16;82.24
57250;BME280;43102;52.014;-0.680;2024-02-21T00:51:00;100898;;;10.16;82.24
57250;BME280;43102;52.014;-0.680;2024-02-21T00:52:00;100898;;;10.16;82.24
57250;BME280;43102;52.014;-0.680;2024-02-21T00:53:00;100898;;;10.16;82.24
57250;BME280;43102;52.014;-0.680;2024-02-21T00:54:00;100896;;;10.07;82.58
57250;BME280;43102;52.014;-0.680;2024-02-21T00:55:00;100896;;;10.07;82.58
57250;BME280;43102;52.014;-0.680;2024-02-21T00:56:00;100896;;;10.07;82.58
57250;BME280;43102;52.014;-0.680;2024-02-21T00:57:00;100896;;;10.07;82.58
57250;BME280;43102;52.014;-0.680;2024-02-21T00:58:00;100896;;;10.07;82.58
57250;BME280;43102;52.014;-0.680;2024-02-21T00:59:00;100904;;;10.20;82.25
57250;BME280;43102;52.014;-0.680;2024-02-21T01:00:00;100904;;;10.20;82.25
57250;BME280;43102;52.014;-0.680;2024-02-21T01:01:00;100904;;;10.20;82.25
57250;BME280;43102;52.014;-0.680;2024-02-21T01:02:00;100904;;;10.20;82.25
57250;BME280;43102;52.014;-0.680;2024-02-21T01:03:00;100904;;;10.20;82.25
57250;BME280;43102;52.014;-0.680;2024-02-21T01:04:00;100898;;;10.19;82.47
57250;BME280;43102;52.014;-0.680;2024-02-21T01:05:00;100898;;;10.19;82.47
57250;BME280;43102;52.014;-0.680;2024-02-21T01:06:00;100898;;;10.19;82.47
57250;BME280;43102;52.014;-0.680;2024-02-21T01:07:00;100898;;;10.19;82.47
57250;BME280;43102;52.014;-0.680;2024-02-21T01:08:00;100898;;;10.19;82.47
57250;BME280;43102;52.014;-0.680;2024-02-21T01:09:00;100891;;;10.17;82.47
57250;BME280;43102;52.014;-0.680;2024-02-21T01:10:00;100891;;;10.17;82.47
57250;BME280;43102;52.014;-0.680;2024-02-21T01:11:00;100891;;;10.17;82.47
57250;BME280;43102;52.014;-0.680;2024-02-21T01:12:00;100891;;;10.17;82.47
57250;BME280;43102;52.014;-0.680;2024-02-21T01:13:00;100891;;;10.17;82.47
57250;BME280;43102;52.014;-0.680;2024-02-21T01:14:00;100891;;;10.21;82.41
57250;BME280;43102;52.014;-0.680;2024-02-21T01:15:00;100891;;;10.21;82.41
57250;BME280;43102;52.014;-0.680;2024-02-21T01:16:00;100891;;;10.21;82.41
57250;BME280;43102;52.014;-0.680;2024-02-21T01:17:00;100891;;;10.21;82.41
57250;BME280;43102;52.014;-0.680;2024-02-21T01:18:00;100891;;;10.21;82.41
57250;BME280;43102;52.014;-0.680;2024-02-21T01:19:00;100884;;;10.23;82.29
57250;BME280;43102;52.014;-0.680;2024-02-21T01:20:00;100884;;;10.23;82.29
57250;BME280;43102;52.014;-0.680;2024-02-21T01:21:00;100884;;;10.23;82.29
57250;BME280;43102;52.014;-0.680;2024-02-21T01:22:00;100884;;;10.23;82.29
57250;BME280;43102;52.014;-0.680;2024-02-21T01:23:00;100884;;;10.23;82.29
57250;BME280;43102;52.014;-0.680;2024-02-21T01:24:00;100865;;;10.20;82.50
57250;BME280;43102;52.014;-0.680;2024-02-21T01:25:00;100865;;;10.20;82.50
57250;BME280;43102;52.014;-0.680;2024-02-21T01:26:00;100865;;;10.20;82.50
57250;BME280;43102;52.014;-0.680;2024-02-21T01:27:00;100865;;;10.20;82.50
57250;BME280;43102;52.014;-0.680;2024-02-21T01:28:00;100865;;;10.20;82.50
57250;BME280;43102;52.014;-0.680;2024-02-21T01:29:00;100862;;;10.16;83.06
57250;BME280;43102;52.014;-0.680;2024-02-21T01:30:00;100862;;;10.16;83.06
57250;BME280;43102;52.014;-0.680;2024-02-21T01:31:00;100862;;;10.16;83.06
57250;BME280;43102;52.014;-0.680;2024-02-21T01:32:00;100862;;;10.16;83.06
57250;BME280;43102;52.014;-0.680;2024-02-21T01:33:00;100862;;;10.16;83.06
57250;BME280;43102;52.014;-0.680;2024-02-21T01:34:00;100847;;;10.22;82.93
57250;BME280;43102;52.014;-0.680;2024-02-21T01:35:00;100847;;;10.22;82.93
57250;BME280;43102;52.014;-0.680;2024-02-21T01:36:01;100847;;;10.22;82.93
57250;BME280;43102;52.014;-0.680;2024-02-21T01:37:00;100847;;;10.22;82.93
57250;BME280;43102;52.014;-0.680;2024-02-21T01:38:00;100847;;;10.22;82.93
57250;BME280;43102;52.014;-0.680;2024-02-21T01:39:00;100838;;;10.12;83.31
57250;BME280;43102;52.014;-0.680;2024-02-21T01:40:00;100838;;;10.12;83.31
57250;BME280;43102;52.014;-0.680;2024-02-21T01:41:00;100838;;;10.12;83.31
57250;BME280;43102;52.014;-0.680;2024-02-21T01:42:00;100838;;;10.12;83.31
57250;BME280;43102;52.014;-0.680;2024-02-21T01:43:00;100838;;;10.12;83.31
57250;BME280;43102;52.014;-0.680;2024-02-21T01:44:00;100826;;;10.20;82.97
57250;BME280;43102;52.014;-0.680;2024-02-21T01:45:00;100826;;;10.20;82.97
57250;BME280;43102;52.014;-0.680;2024-02-21T01:46:00;100826;;;10.20;82.97
57250;BME280;43102;52.014;-0.680;2024-02-21T01:47:00;100826;;;10.20;82.97
57250;BME280;43102;52.014;-0.680;2024-02-21T01:48:00;100826;;;10.20;82.97
57250;BME280;43102;52.014;-0.680;2024-02-21T01:49:00;100804;;;10.18;82.98
57250;BME280;43102;52.014;-0.680;2024-02-21T01:50:00;100804;;;10.18;82.98
57250;BME280;43102;52.014;-0.680;2024-02-21T01:51:00;100804;;;10.18;82.98
57250;BME280;43102;52.014;-0.680;2024-02-21T01:52:00;100804;;;10.18;82.98
57250;BME280;43102;52.014;-0.680;2024-02-21T01:53:00;100804;;;10.18;82.98
57250;BME280;43102;52.014;-0.680;2024-02-21T01:54:00;100796;;;10.17;82.98
57250;BME280;43102;52.014;-0.680;2024-02-21T01:55:00;100796;;;10.17;82.98
57250;BME280;43102;52.014;-0.680;2024-02-21T01:56:00;100796;;;10.17;82.98
57250;BME280;43102;52.014;-0.680;2024-02-21T01:57:00;100796;;;10.17;82.98
57250;BME280;43102;52.014;-0.680;2024-02-21T01:58:00;100796;;;10.17;82.98
57250;BME280;43102;52.014;-0.680;2024-02-21T01:59:00;100788;;;10.20;83.00
57250;BME280;43102;52.014;-0.680;2024-02-21T02:00:00;100788;;;10.20;83.00
57250;BME280;43102;52.014;-0.680;2024-02-21T02:01:00;100788;;;10.20;83.00
57250;BME280;43102;52.014;-0.680;2024-02-21T02:02:00;100788;;;10.20;83.00
57250;BME280;43102;52.014;-0.680;2024-02-21T02:03:00;100788;;;10.20;83.00
57250;BME280;43102;52.014;-0.680;2024-02-21T02:04:00;100768;;;10.17;83.54
57250;BME280;43102;52.014;-0.680;2024-02-21T02:05:00;100768;;;10.17;83.54
57250;BME280;43102;52.014;-0.680;2024-02-21T02:06:00;100768;;;10.17;83.54
57250;BME280;43102;52.014;-0.680;2024-02-21T02:07:00;100768;;;10.17;83.54
57250;BME280;43102;52.014;-0.680;2024-02-21T02:08:00;100768;;;10.17;83.54
57250;BME280;43102;52.014;-0.680;2024-02-21T02:09:00;100752;;;10.14;84.15
57250;BME280;43102;52.014;-0.680;2024-02-21T02:10:00;100752;;;10.14;84.15
57250;BME280;43102;52.014;-0.680;2024-02-21T02:11:00;100752;;;10.14;84.15
57250;BME280;43102;52.014;-0.680;2024-02-21T02:12:00;100752;;;10.14;84.15
57250;BME280;43102;52.014;-0.680;2024-02-21T02:13:00;100752;;;10.14;84.15
57250;BME280;43102;52.014;-0.680;2024-02-21T02:14:00;100733;;;10.18;83.94
57250;BME280;43102;52.014;-0.680;2024-02-21T02:15:00;100733;;;10.18;83.94
57250;BME280;43102;52.014;-0.680;2024-02-21T02:16:00;100733;;;10.18;83.94
57250;BME280;43102;52.014;-0.680;2024-02-21T02:17:00;100733;;;10.18;83.94
57250;BME280;43102;52.014;-0.680;2024-02-21T02:18:00;100733;;;10.18;83.94
57250;BME280;43102;52.014;-0.680;2024-02-21T02:19:00;100722;;;10.12;84.34
57250;BME280;43102;52.014;-0.680;2024-02-21T02:20:00;100722;;;10.12;84.34
57250;BME280;43102;52.014;-0.680;2024-02-21T02:21:00;100722;;;10.12;84.34
57250;BME280;43102;52.014;-0.680;2024-02-21T02:22:02;100722;;;10.12;84.34
57250;BME280;43102;52.014;-0.680;2024-02-21T02:23:00;100722;;;10.12;84.34
57250;BME280;43102;52.014;-0.680;2024-02-21T02:24:00;100708;;;10.13;84.24
57250;BME280;43102;52.014;-0.680;2024-02-21T02:25:00;100708;;;10.13;84.24
57250;BME280;43102;52.014;-0.680;2024-02-21T02:26:00;100708;;;10.13;84.24
57250;BME280;43102;52.014;-0.680;2024-02-21T02:27:00;100708;;;10.13;84.24
57250;BME280;43102;52.014;-0.680;2024-02-21T02:28:00;100708;;;10.13;84.24
57250;BME280;43102;52.014;-0.680;2024-02-21T02:29:01;100702;;;10.18;84.06
57250;BME280;43102;52.014;-0.680;2024-02-21T02:30:00;100702;;;10.18;84.06
57250;BME280;43102;52.014;-0.680;2024-02-21T02:31:00;100702;;;10.18;84.06
57250;BME280;43102;52.014;-0.680;2024-02-21T02:32:00;100702;;;10.18;84.06
57250;BME280;43102;52.014;-0.680;2024-02-21T02:33:00;100702;;;10.18;84.06
57250;BME280;43102;52.014;-0.680;2024-02-21T02:34:00;100706;;;10.24;83.72
57250;BME280;43102;52.014;-0.680;2024-02-21T02:35:00;100706;;;10.24;83.72
57250;BME280;43102;52.014;-0.680;2024-02-21T02:36:00;100706;;;10.24;83.72
57250;BME280;43102;52.014;-0.680;2024-02-21T02:37:00;100706;;;10.24;83.72
57250;BME280;43102;52.014;-0.680;2024-02-21T02:38:00;100706;;;10.24;83.72
57250;BME280;43102;52.014;-0.680;2024-02-21T02:39:00;100697;;;10.21;83.70
57250;BME280;43102;52.014;-0.680;2024-02-21T02:40:00;100697;;;10.21;83.70
57250;BME280;43102;52.014;-0.680;2024-02-21T02:41:00;100697;;;10.21;83.70
57250;BME280;43102;52.014;-0.680;2024-02-21T02:42:00;100697;;;10.21;83.70
57250;BME280;43102;52.014;-0.680;2024-02-21T02:43:00;100697;;;10.21;83.70
57250;BME280;43102;52.014;-0.680;2024-02-21T02:44:00;100693;;;10.26;83.57
57250;BME280;43102;52.014;-0.680;2024-02-21T02:45:00;100693;;;10.26;83.57
57250;BME280;43102;52.014;-0.680;2024-02-21T02:46:00;100693;;;10.26;83.57
57250;BME280;43102;52.014;-0.680;2024-02-21T02:47:00;100693;;;10.26;83.57
57250;BME280;43102;52.014;-0.680;2024-02-21T02:48:00;100693;;;10.26;83.57
57250;BME280;43102;52.014;-0.680;2024-02-21T02:49:00;100681;;;10.25;83.64
57250;BME280;43102;52.014;-0.680;2024-02-21T02:50:00;100681;;;10.25;83.64
57250;BME280;43102;52.014;-0.680;2024-02-21T02:51:00;100681;;;10.25;83.64
57250;BME280;43102;52.014;-0.680;2024-02-21T02:52:00;100681;;;10.25;83.64
57250;BME280;43102;52.014;-0.680;2024-02-21T02:53:00;100681;;;10.25;83.64
57250;BME280;43102;52.014;-0.680;2024-02-21T02:54:00;100668;;;10.24;83.88
57250;BME280;43102;52.014;-0.680;2024-02-21T02:55:00;100668;;;10.24;83.88
57250;BME280;43102;52.014;-0.680;2024-02-21T02:56:00;100668;;;10.24;83.88
57250;BME280;43102;52.014;-0.680;2024-02-21T02:57:00;100668;;;10.24;83.88
57250;BME280;43102;52.014;-0.680;2024-02-21T02:58:00;100668;;;10.24;83.88
57250;BME280;43102;52.014;-0.680;2024-02-21T02:59:00;100656;;;10.20;84.19
57250;BME280;43102;52.014;-0.680;2024-02-21T03:00:00;100656;;;10.20;84.19
57250;BME280;43102;52.014;-0.680;2024-02-21T03:01:00;100656;;;10.20;84.19
57250;BME280;43102;52.014;-0.680;2024-02-21T03:02:00;100656;;;10.20;84.19
57250;BME280;43102;52.014;-0.680;2024-02-21T03:03:00;100656;;;10.20;84.19
57250;BME280;43102;52.014;-0.680;2024-02-21T03:04:00;100647;;;10.23;84.16
57250;BME280;43102;52.014;-0.680;2024-02-21T03:05:00;100647;;;10.23;84.16
57250;BME280;43102;52.014;-0.680;2024-02-21T03:06:00;100647;;;10.23;84.16
57250;BME280;43102;52.014;-0.680;2024-02-21T03:07:00;100647;;;10.23;84.16
57250;BME280;43102;52.014;-0.680;2024-02-21T03:08:00;100647;;;10.23;84.16
57250;BME280;43102;52.014;-0.680;2024-02-21T03:09:00;100633;;;10.19;84.45
57250;BME280;43102;52.014;-0.680;2024-02-21T03:10:00;100633;;;10.19;84.45
57250;BME280;43102;52.014;-0.680;2024-02-21T03:11:00;100633;;;10.19;84.45
57250;BME280;43102;52.014;-0.680;2024-02-21T03:12:00;100633;;;10.19;84.45
57250;BME280;43102;52.014;-0.680;2024-02-21T03:13:00;100633;;;10.19;84.45
57250;BME280;43102;52.014;-0.680;2024-02-21T03:14:00;100622;;;10.19;84.47
57250;BME280;43102;52.014;-0.680;2024-02-21T03:15:00;100622;;;10.19;84.47
57250;BME280;43102;52.014;-0.680;2024-02-21T03:16:00;100622;;;10.19;84.47
57250;BME280;43102;52.014;-0.680;2024-02-21T03:17:00;100622;;;10.19;84.47
57250;BME280;43102;52.014;-0.680;2024-02-21T03:18:00;100622;;;10.19;84.47
57250;BME280;43102;52.014;-0.680;2024-02-21T03:19:00;100608;;;10.19;84.46
57250;BME280;43102;52.014;-0.680;2024-02-21T03:20:01;100608;;;10.19;84.46
57250;BME280;43102;52.014;-0.680;2024-02-21T03:21:00;100608;;;10.19;84.46
57250;BME280;43102;52.014;-0.680;2024-02-21T03:22:00;100608;;;10.19;84.46
57250;BME280;43102;52.014;-0.680;2024-02-21T03:23:00;100608;;;10.19;84.46
57250;BME280;43102;52.014;-0.680;2024-02-21T03:24:00;100609;;;10.14;84.62
57250;BME280;43102;52.014;-0.680;2024-02-21T03:25:00;100609;;;10.14;84.62
57250;BME280;43102;52.014;-0.680;2024-02-21T03:26:00;100609;;;10.14;84.62
57250;BME280;43102;52.014;-0.680;2024-02-21T03:27:00;100609;;;10.14;84.62
57250;BME280;43102;52.014;-0.680;2024-02-21T03:28:00;100609;;;10.14;84.62
57250;BME280;43102;52.014;-0.680;2024-02-21T03:29:00;100598;;;10.09;84.74
57250;BME280;43102;52.014;-0.680;2024-02-21T03:30:00;100598;;;10.09;84.74
57250;BME280;43102;52.014;-0.680;2024-02-21T03:31:00;100598;;;10.09;84.74
57250;BME280;43102;52.014;-0.680;2024-02-21T03:32:00;100598;;;10.09;84.74
57250;BME280;43102;52.014;-0.680;2024-02-21T03:33:00;100598;;;10.09;84.74
57250;BME280;43102;52.014;-0.680;2024-02-21T03:34:00;100587;;;10.07;84.86
57250;BME280;43102;52.014;-0.680;2024-02-21T03:35:00;100587;;;10.07;84.86
57250;BME280;43102;52.014;-0.680;2024-02-21T03:36:00;100587;;;10.07;84.86
57250;BME280;43102;52.014;-0.680;2024-02-21T03:37:00;100587;;;10.07;84.86
57250;BME280;43102;52.014;-0.680;2024-02-21T03:38:00;100587;;;10.07;84.86
57250;BME280;43102;52.014;-0.680;2024-02-21T03:39:00;100577;;;10.12;84.55
57250;BME280;43102;52.014;-0.680;2024-02-21T03:40:00;100577;;;10.12;84.55
57250;BME280;43102;52.014;-0.680;2024-02-21T03:41:00;100577;;;10.12;84.55
57250;BME280;43102;52.014;-0.680;2024-02-21T03:42:00;100577;;;10.12;84.55
57250;BME280;43102;52.014;-0.680;2024-02-21T03:43:00;100577;;;10.12;84.55
57250;BME280;43102;52.014;-0.680;2024-02-21T03:44:00;100563;;;10.11;84.38
57250;BME280;43102;52.014;-0.680;2024-02-21T03:45:00;100563;;;10.11;84.38
57250;BME280;43102;52.014;-0.680;2024-02-21T03:46:00;100563;;;10.11;84.38
57250;BME280;43102;52.014;-0.680;2024-02-21T03:47:00;100563;;;10.11;84.38
57250;BME280;43102;52.014;-0.680;2024-02-21T03:48:00;100563;;;10.11;84.38
57250;BME280;43102;52.014;-0.680;2024-02-21T03:49:00;100556;;;10.07;84.39
57250;BME280;43102;52.014;-0.680;2024-02-21T03:50:00;100556;;;10.07;84.39
57250;BME280;43102;52.014;-0.680;2024-02-21T03:51:00;100556;;;10.07;84.39
57250;BME280;43102;52.014;-0.680;2024-02-21T03:52:00;100556;;;10.07;84.39
57250;BME280;43102;52.014;-0.680;2024-02-21T03:53:00;100556;;;10.07;84.39
57250;BME280;43102;52.014;-0.680;2024-02-21T03:54:00;100548;;;10.09;84.23
57250;BME280;43102;52.014;-0.680;2024-02-21T03:55:00;100548;;;10.09;84.23
57250;BME280;43102;52.014;-0.680;2024-02-21T03:56:01;100548;;;10.09;84.23
57250;BME280;43102;52.014;-0.680;2024-02-21T03:57:00;100548;;;10.09;84.23
57250;BME280;43102;52.014;-0.680;2024-02-21T03:58:00;100548;;;10.09;84.23
57250;BME280;43102;52.014;-0.680;2024-02-21T03:59:00;100545;;;10.12;84.14
57250;BME280;43102;52.014;-0.680;2024-02-21T04:00:00;100545;;;10.12;84.14
57250;BME280;43102;52.014;-0.680;2024-02-21T04:01:00;100545;;;10.12;84.14
57250;BME280;43102;52.014;-0.680;2024-02-21T04:02:00;100545;;;10.12;84.14
57250;BME280;43102;52.014;-0.680;2024-02-21T04:03:00;100545;;;10.12;84.14
57250;BME280;43102;52.014;-0.680;2024-02-21T04:04:00;100533;;;10.06;84.49
57250;BME280;43102;52.014;-0.680;2024-02-21T04:05:00;100533;;;10.06;84.49
57250;BME280;43102;52.014;-0.680;2024-02-21T04:06:00;100533;;;10.06;84.49
57250;BME280;43102;52.014;-0.680;2024-02-21T04:07:00;100533;;;10.06;84.49
57250;BME280;43102;52.014;-0.680;2024-02-21T04:08:00;100533;;;10.06;84.49
57250;BME280;43102;52.014;-0.680;2024-02-21T04:09:00;100521;;;9.98;85.11
57250;BME280;43102;52.014;-0.680;2024-02-21T04:10:00;100521;;;9.98;85.11
57250;BME280;43102;52.014;-0.680;2024-02-21T04:11:00;100521;;;9.98;85.11
57250;BME280;43102;52.014;-0.680;2024-02-21T04:12:00;100521;;;9.98;85.11
57250;BME280;43102;52.014;-0.680;2024-02-21T04:13:00;100521;;;9.98;85.11
57250;BME280;43102;52.014;-0.680;2024-02-21T04:14:00;100507;;;10.04;84.95
57250;BME280;43102;52.014;-0.680;2024-02-21T04:15:00;100507;;;10.04;84.95
57250;BME280;43102;52.014;-0.680;2024-02-21T04:16:00;100507;;;10.04;84.95
57250;BME280;43102;52.014;-0.680;2024-02-21T04:17:00;100507;;;10.04;84.95
57250;BME280;43102;52.014;-0.680;2024-02-21T04:18:00;100507;;;10.04;84.95
57250;BME280;43102;52.014;-0.680;2024-02-21T04:19:00;100498;;;10.00;85.25
57250;BME280;43102;52.014;-0.680;2024-02-21T04:20:02;100498;;;10.00;85.25
57250;BME280;43102;52.014;-0.680;2024-02-21T04:21:00;100498;;;10.00;85.25
57250;BME280;43102;52.014;-0.680;2024-02-21T04:22:00;100498;;;10.00;85.25
57250;BME280;43102;52.014;-0.680;2024-02-21T04:23:00;100498;;;10.00;85.25
57250;BME280;43102;52.014;-0.680;2024-02-21T04:24:00;100499;;;9.99;85.44
57250;BME280;43102;52.014;-0.680;2024-02-21T04:25:00;100499;;;9.99;85.44
57250;BME280;43102;52.014;-0.680;2024-02-21T04:26:00;100499;;;9.99;85.44
57250;BME280;43102;52.014;-0.680;2024-02-21T04:27:00;100499;;;9.99;85.44
57250;BME280;43102;52.014;-0.680;2024-02-21T04:28:00;100499;;;9.99;85.44
57250;BME280;43102;52.014;-0.680;2024-02-21T04:29:00;100482;;;9.97;85.62
57250;BME280;43102;52.014;-0.680;2024-02-21T04:30:00;100482;;;9.97;85.62
57250;BME280;43102;52.014;-0.680;2024-02-21T04:31:00;100482;;;9.97;85.62
57250;BME280;43102;52.014;-0.680;2024-02-21T04:32:01;100482;;;9.97;85.62
57250;BME280;43102;52.014;-0.680;2024-02-21T04:33:00;100482;;;9.97;85.62
57250;BME280;43102;52.014;-0.680;2024-02-21T04:34:00;100465;;;9.94;85.96
57250;BME280;43102;52.014;-0.680;2024-02-21T04:35:00;100465;;;9.94;85.96
57250;BME280;43102;52.014;-0.680;2024-02-21T04:36:00;100465;;;9.94;85.96
57250;BME280;43102;52.014;-0.680;2024-02-21T04:37:00;100465;;;9.94;85.96
57250;BME280;43102;52.014;-0.680;2024-02-21T04:38:00;100465;;;9.94;85.96
57250;BME280;43102;52.014;-0.680;2024-02-21T04:39:00;100453;;;9.92;86.12
57250;BME280;43102;52.014;-0.680;2024-02-21T04:40:00;100453;;;9.92;86.12
57250;BME280;43102;52.014;-0.680;2024-02-21T04:41:00;100453;;;9.92;86.12
57250;BME280;43102;52.014;-0.680;2024-02-21T04:42:00;100453;;;9.92;86.12
57250;BME280;43102;52.014;-0.680;2024-02-21T04:43:00;100453;;;9.92;86.12
57250;BME280;43102;52.014;-0.680;2024-02-21T04:44:00;100422;;;9.90;86.23
57250;BME280;43102;52.014;-0.680;2024-02-21T04:45:00;100422;;;9.90;86.23
57250;BME280;43102;52.014;-0.680;2024-02-21T04:46:00;100422;;;9.90;86.23
57250;BME280;43102;52.014;-0.680;2024-02-21T04:47:00;100422;;;9.90;86.23
57250;BME280;43102;52.014;-0.680;2024-02-21T04:48:00;100422;;;9.90;86.23
57250;BME280;43102;52.014;-0.680;2024-02-21T04:49:00;100400;;;9.86;86.52
57250;BME280;43102;52.014;-0.680;2024-02-21T04:50:00;100400;;;9.86;86.52
57250;BME280;43102;52.014;-0.680;2024-02-21T04:51:00;100400;;;9.86;86.52
57250;BME280;43102;52.014;-0.680;2024-02-21T04:52:00;100400;;;9.86;86.52
57250;BME280;43102;52.014;-0.680;2024-02-21T04:53:00;100400;;;9.86;86.52
57250;BME280;43102;52.014;-0.680;2024-02-21T04:54:00;100393;;;9.89;86.31
57250;BME280;43102;52.014;-0.680;2024-02-21T04:55:00;100393;;;9.89;86.31
57250;BME280;43102;52.014;-0.680;2024-02-21T04:56:00;100393;;;9.89;86.31
57250;BME280;43102;52.014;-0.680;2024-02-21T04:57:00;100393;;;9.89;86.31
57250;BME280;43102;52.014;-0.680;2024-02-21T04:58:00;100393;;;9.89;86.31
57250;BME280;43102;52.014;-0.680;2024-02-21T04:59:00;100391;;;9.88;86.29
57250;BME280;43102;52.014;-0.680;2024-02-21T05:00:00;100391;;;9.88;86.29
57250;BME280;43102;52.014;-0.680;2024-02-21T05:01:00;100391;;;9.88;86.29
57250;BME280;43102;52.014;-0.680;2024-02-21T05:02:00;100391;;;9.88;86.29
57250;BME280;43102;52.014;-0.680;2024-02-21T05:03:00;100391;;;9.88;86.29
57250;BME280;43102;52.014;-0.680;2024-02-21T05:04:01;100402;;;9.86;86.39
57250;BME280;43102;52.014;-0.680;2024-02-21T05:05:00;100402;;;9.86;86.39
57250;BME280;43102;52.014;-0.680;2024-02-21T05:06:00;100402;;;9.86;86.39
57250;BME280;43102;52.014;-0.680;2024-02-21T05:07:00;100402;;;9.86;86.39
57250;BME280;43102;52.014;-0.680;2024-02-21T05:08:00;100402;;;9.86;86.39
57250;BME280;43102;52.014;-0.680;2024-02-21T05:09:00;100392;;;9.83;86.61
57250;BME280;43102;52.014;-0.680;2024-02-21T05:10:00;100392;;;9.83;86.61
57250;BME280;43102;52.014;-0.680;2024-02-21T05:11:00;100392;;;9.83;86.61
57250;BME280;43102;52.014;-0.680;2024-02-21T05:12:00;100392;;;9.83;86.61
57250;BME280;43102;52.014;-0.680;2024-02-21T05:13:00;100392;;;9.83;86.61
57250;BME280;43102;52.014;-0.680;2024-02-21T05:14:00;100376;;;9.81;86.79
57250;BME280;43102;52.014;-0.680;2024-02-21T05:15:00;100376;;;9.81;86.79
57250;BME280;43102;52.014;-0.680;2024-02-21T05:16:00;100376;;;9.81;86.79
57250;BME280;43102;52.014;-0.680;2024-02-21T05:17:00;100376;;;9.81;86.79
57250;BME280;43102;52.014;-0.680;2024-02-21T05:18:00;100376;;;9.81;86.79
57250;BME280;43102;52.014;-0.680;2024-02-21T05:19:00;100355;;;9.82;86.58
57250;BME280;43102;52.014;-0.680;2024-02-21T05:20:00;100355;;;9.82;86.58
57250;BME280;43102;52.014;-0.680;2024-02-21T05:21:01;100355;;;9.82;86.58
57250;BME280;43102;52.014;-0.680;2024-02-21T05:22:00;100355;;;9.82;86.58